createdAt,value
2018-05-27T00:02:01.061Z,60.28
2018-05-27T00:04:27.350Z,60.91
2018-05-27T00:06:53.636Z,60.49
2018-05-27T00:09:19.936Z,60.44
2018-05-27T00:11:46.224Z,60.20
2018-05-27T00:14:12.521Z,60.16
2018-05-27T00:16:38.813Z,60.20
2018-05-27T00:19:05.111Z,60.08
2018-05-27T00:21:31.401Z,60.17
2018-05-27T00:23:57.687Z,59.99
2018-05-27T00:26:23.980Z,59.93
2018-05-27T00:28:50.268Z,59.91
2018-05-27T00:31:16.556Z,59.88
2018-05-27T00:33:42.847Z,59.44
2018-05-27T00:36:09.131Z,59.34
2018-05-27T00:38:35.423Z,59.62
2018-05-27T00:41:01.762Z,59.64
2018-05-27T00:43:28.058Z,59.70
2018-05-27T00:45:54.349Z,59.46
2018-05-27T00:48:20.640Z,59.44
2018-05-27T00:50:46.932Z,59.61
2018-05-27T00:53:13.228Z,59.82
2018-05-27T00:55:39.522Z,60.17
2018-05-27T00:58:05.817Z,60.09
2018-05-27T01:00:32.110Z,60.21
2018-05-27T01:02:58.405Z,60.09
2018-05-27T01:05:24.700Z,59.75
2018-05-27T01:07:50.987Z,59.67
2018-05-27T01:10:17.283Z,59.64
2018-05-27T01:12:43.578Z,59.66
2018-05-27T01:15:09.903Z,59.44
2018-05-27T01:17:45.498Z,59.58
2018-05-27T01:20:11.787Z,59.63
2018-05-27T01:22:38.081Z,59.48
2018-05-27T01:25:04.367Z,59.71
2018-05-27T01:27:30.664Z,59.75
2018-05-27T01:29:56.953Z,59.82
2018-05-27T01:32:23.287Z,59.96
2018-05-27T01:34:49.615Z,60.04
2018-05-27T01:37:15.909Z,60.17
2018-05-27T01:39:42.201Z,60.19
2018-05-27T01:42:08.490Z,59.89
2018-05-27T01:44:34.779Z,60.13
2018-05-27T01:47:01.075Z,60.31
2018-05-27T01:49:27.363Z,60.10
2018-05-27T01:51:53.657Z,60.11
2018-05-27T01:54:19.951Z,60.09
2018-05-27T01:56:46.240Z,60.20
2018-05-27T01:59:12.539Z,60.15
2018-05-27T02:01:38.832Z,60.34
2018-05-27T02:04:05.121Z,60.14
2018-05-27T02:06:31.430Z,60.28
2018-05-27T02:08:57.730Z,60.51
2018-05-27T02:11:24.021Z,60.40
2018-05-27T02:13:50.316Z,60.31
2018-05-27T02:16:16.610Z,60.39
2018-05-27T02:18:42.898Z,60.55
2018-05-27T02:21:09.232Z,60.36
2018-05-27T02:23:35.522Z,60.41
2018-05-27T02:26:01.860Z,60.31
2018-05-27T02:28:28.197Z,60.57
2018-05-27T02:30:54.489Z,60.35
2018-05-27T02:33:20.820Z,60.35
2018-05-27T02:35:47.115Z,60.29
2018-05-27T02:38:13.443Z,60.32
2018-05-27T02:40:39.777Z,60.50
2018-05-27T02:43:06.071Z,60.49
2018-05-27T02:45:32.361Z,60.44
2018-05-27T02:47:58.643Z,60.40
2018-05-27T02:50:24.942Z,60.45
2018-05-27T02:52:51.234Z,60.56
2018-05-27T02:55:17.562Z,60.55
2018-05-27T02:57:43.885Z,60.52
2018-05-27T03:00:10.168Z,60.49
2018-05-27T03:02:36.457Z,60.49
2018-05-27T03:05:02.756Z,60.53
2018-05-27T03:07:29.044Z,60.69
2018-05-27T03:09:55.339Z,60.78
2018-05-27T03:12:21.643Z,60.76
2018-05-27T03:14:47.949Z,60.79
2018-05-27T03:17:14.269Z,60.75
2018-05-27T03:19:40.565Z,60.79
2018-05-27T03:22:06.869Z,60.93
2018-05-27T03:24:33.163Z,61.17
2018-05-27T03:26:59.499Z,61.07
2018-05-27T03:29:25.830Z,60.96
2018-05-27T03:31:52.117Z,60.99
2018-05-27T03:34:18.451Z,61.09
2018-05-27T03:36:44.743Z,61.18
2018-05-27T03:39:11.092Z,61.08
2018-05-27T03:41:37.387Z,61.13
2018-05-27T03:44:03.679Z,61.37
2018-05-27T03:46:29.973Z,61.43
2018-05-27T03:48:56.261Z,61.45
2018-05-27T03:51:22.560Z,61.54
2018-05-27T03:53:48.853Z,61.53
2018-05-27T03:56:15.147Z,61.64
2018-05-27T03:58:41.446Z,61.46
2018-05-27T04:01:07.744Z,61.26
2018-05-27T04:03:34.044Z,61.28
2018-05-27T04:06:00.334Z,61.19
2018-05-27T04:08:26.618Z,61.30
2018-05-27T04:10:52.906Z,61.30
2018-05-27T04:13:19.209Z,61.17
2018-05-27T04:15:45.503Z,61.23
2018-05-27T04:18:11.793Z,61.32
2018-05-27T04:20:38.087Z,61.24
2018-05-27T04:23:04.384Z,61.08
2018-05-27T04:25:30.679Z,61.39
2018-05-27T04:27:56.974Z,61.21
2018-05-27T04:30:23.259Z,61.23
2018-05-27T04:32:49.564Z,60.89
2018-05-27T04:35:15.846Z,61.05
2018-05-27T04:37:42.138Z,61.97
2018-05-27T04:40:08.434Z,61.83
2018-05-27T04:42:34.730Z,61.67
2018-05-27T04:45:01.059Z,61.47
2018-05-27T04:47:27.390Z,61.10
2018-05-27T04:49:53.725Z,60.97
2018-05-27T04:52:20.014Z,60.99
2018-05-27T04:54:46.304Z,61.56
2018-05-27T04:57:12.592Z,61.87
2018-05-27T04:59:38.933Z,61.71
2018-05-27T05:02:05.217Z,61.52
2018-05-27T05:04:31.514Z,61.83
2018-05-27T05:06:57.840Z,61.71
2018-05-27T05:09:24.186Z,61.68
2018-05-27T05:11:50.457Z,61.92
2018-05-27T05:14:16.753Z,61.78
2018-05-27T05:16:43.108Z,61.46
2018-05-27T05:19:09.408Z,61.75
2018-05-27T05:21:35.700Z,62.08
2018-05-27T05:24:01.999Z,62.20
2018-05-27T05:26:28.301Z,62.11
2018-05-27T05:28:54.593Z,61.58
2018-05-27T05:31:20.899Z,61.79
2018-05-27T05:33:47.215Z,61.11
2018-05-27T05:36:13.501Z,60.76
2018-05-27T05:38:39.818Z,61.06
2018-05-27T05:41:06.108Z,60.96
2018-05-27T05:43:32.452Z,60.39
2018-05-27T05:45:58.748Z,59.96
2018-05-27T05:48:25.048Z,59.66
2018-05-27T05:50:51.343Z,59.80
2018-05-27T05:53:17.633Z,59.72
2018-05-27T05:55:43.966Z,59.58
2018-05-27T05:58:10.261Z,59.59
2018-05-27T06:00:36.556Z,59.50
2018-05-27T06:03:02.849Z,59.04
2018-05-27T06:05:29.198Z,58.95
2018-05-27T06:07:55.483Z,59.14
2018-05-27T06:10:21.773Z,58.89
2018-05-27T06:12:48.084Z,58.22
2018-05-27T06:15:14.387Z,58.18
2018-05-27T06:17:40.671Z,58.35
2018-05-27T06:20:06.965Z,58.15
2018-05-27T06:22:33.263Z,58.94
2018-05-27T06:24:59.556Z,59.83
2018-05-27T06:27:25.851Z,60.31
2018-05-27T06:29:52.142Z,61.05
2018-05-27T06:32:18.438Z,60.92
2018-05-27T06:34:44.732Z,61.60
2018-05-27T06:37:11.027Z,59.37
2018-05-27T06:39:37.327Z,60.24
2018-05-27T06:42:03.624Z,59.08
2018-05-27T06:44:29.980Z,57.09
2018-05-27T06:46:56.269Z,58.02
2018-05-27T06:49:22.561Z,59.34
2018-05-27T06:51:48.932Z,58.95
2018-05-27T06:54:15.190Z,60.45
2018-05-27T06:56:41.491Z,60.07
2018-05-27T06:59:07.785Z,59.57
2018-05-27T07:01:34.077Z,59.53
2018-05-27T07:04:00.409Z,60.81
2018-05-27T07:06:26.740Z,59.45
2018-05-27T07:08:53.036Z,61.11
2018-05-27T07:11:19.398Z,63.61
2018-05-27T07:13:45.684Z,64.92
2018-05-27T07:16:11.983Z,65.60
2018-05-27T07:18:38.280Z,64.85
2018-05-27T07:21:04.615Z,64.29
2018-05-27T07:23:30.903Z,65.17
2018-05-27T07:25:57.237Z,65.21
2018-05-27T07:28:23.529Z,66.31
2018-05-27T07:30:49.876Z,65.92
2018-05-27T07:33:16.161Z,65.38
2018-05-27T07:35:42.457Z,62.38
2018-05-27T07:38:08.751Z,63.78
2018-05-27T07:40:35.044Z,64.60
2018-05-27T07:43:01.329Z,64.52
2018-05-27T07:45:27.665Z,65.44
2018-05-27T07:47:53.955Z,64.56
2018-05-27T07:50:20.246Z,64.36
2018-05-27T07:52:46.536Z,64.87
2018-05-27T07:55:12.825Z,64.53
2018-05-27T07:57:39.122Z,62.86
2018-05-27T08:00:05.456Z,62.47
2018-05-27T08:02:31.747Z,62.62
2018-05-27T08:04:58.049Z,62.58
2018-05-27T08:07:24.384Z,62.60
2018-05-27T08:09:50.678Z,61.60
2018-05-27T08:12:16.969Z,61.98
2018-05-27T08:14:43.276Z,62.27
2018-05-27T08:17:09.574Z,61.36
2018-05-27T08:19:35.868Z,60.86
2018-05-27T08:22:02.169Z,60.77
2018-05-27T08:24:28.451Z,61.50
2018-05-27T08:26:54.749Z,61.34
2018-05-27T08:29:21.042Z,61.53
2018-05-27T08:31:47.332Z,61.83
2018-05-27T08:34:13.650Z,60.82
2018-05-27T08:36:39.931Z,60.60
2018-05-27T08:39:06.225Z,59.80
2018-05-27T08:41:32.518Z,59.67
2018-05-27T08:43:58.813Z,59.73
2018-05-27T08:46:25.113Z,59.28
2018-05-27T08:48:51.445Z,58.27
2018-05-27T08:51:17.707Z,58.72
2018-05-27T08:53:44.001Z,58.75
2018-05-27T08:56:10.304Z,59.02
2018-05-27T08:58:36.608Z,59.75
2018-05-27T09:01:02.891Z,60.25
2018-05-27T09:03:29.188Z,59.88
2018-05-27T09:05:55.529Z,59.74
2018-05-27T09:08:21.823Z,59.60
2018-05-27T09:10:48.128Z,59.17
2018-05-27T09:13:14.423Z,58.74
2018-05-27T09:15:40.718Z,57.74
2018-05-27T09:18:07.013Z,58.59
2018-05-27T09:20:33.358Z,59.05
2018-05-27T09:22:59.657Z,59.09
2018-05-27T09:25:25.945Z,59.22
2018-05-27T09:27:52.241Z,58.54
2018-05-27T09:30:18.541Z,59.65
2018-05-27T09:32:44.838Z,59.24
2018-05-27T09:35:11.134Z,58.38
2018-05-27T09:37:37.432Z,59.19
2018-05-27T09:40:03.728Z,60.39
2018-05-27T09:42:30.019Z,59.09
2018-05-27T09:44:56.325Z,59.29
2018-05-27T09:47:22.648Z,59.45
2018-05-27T09:49:49.047Z,60.04
2018-05-27T09:52:15.355Z,59.75
2018-05-27T09:54:41.654Z,59.82
2018-05-27T09:57:07.945Z,56.91
2018-05-27T09:59:34.234Z,56.97
2018-05-27T10:02:00.523Z,57.29
2018-05-27T10:04:26.822Z,57.76
2018-05-27T10:06:53.106Z,56.29
2018-05-27T10:09:19.391Z,54.40
2018-05-27T10:11:45.690Z,54.48
2018-05-27T10:14:12.000Z,54.79
2018-05-27T10:16:38.284Z,55.16
2018-05-27T10:19:04.649Z,54.74
2018-05-27T10:21:30.869Z,55.94
2018-05-27T10:23:57.175Z,55.50
2018-05-27T10:26:23.512Z,54.37
2018-05-27T10:28:49.837Z,54.53
2018-05-27T10:31:16.124Z,54.39
2018-05-27T10:33:42.428Z,54.81
2018-05-27T10:36:08.705Z,53.62
2018-05-27T10:38:35.037Z,52.11
2018-05-27T10:41:01.368Z,50.97
2018-05-27T10:43:27.664Z,49.42
2018-05-27T10:45:53.996Z,49.92
2018-05-27T10:48:20.290Z,49.06
2018-05-27T10:50:46.587Z,48.42
2018-05-27T10:53:12.887Z,48.68
2018-05-27T10:55:39.199Z,49.75
2018-05-27T10:58:05.476Z,49.43
2018-05-27T11:00:31.809Z,49.86
2018-05-27T11:02:58.158Z,50.50
2018-05-27T11:05:24.479Z,50.28
2018-05-27T11:07:50.800Z,51.83
2018-05-27T11:10:17.089Z,52.88
2018-05-27T11:12:43.387Z,53.91
2018-05-27T11:15:09.668Z,52.88
2018-05-27T11:17:35.992Z,51.52
2018-05-27T11:20:02.282Z,51.96
2018-05-27T11:22:28.566Z,53.04
2018-05-27T11:24:54.857Z,52.57
2018-05-27T11:27:21.151Z,51.34
2018-05-27T11:29:47.451Z,50.22
2018-05-27T11:32:13.746Z,49.81
2018-05-27T11:34:40.036Z,49.14
2018-05-27T11:37:06.362Z,49.48
2018-05-27T11:39:32.622Z,48.81
2018-05-27T11:41:58.916Z,48.78
2018-05-27T11:44:25.205Z,48.77
2018-05-27T11:46:51.497Z,47.70
2018-05-27T11:49:17.788Z,48.43
2018-05-27T11:51:44.075Z,49.85
2018-05-27T11:54:10.447Z,48.92
2018-05-27T11:56:36.674Z,49.80
2018-05-27T11:59:02.976Z,50.12
2018-05-27T12:01:29.275Z,50.11
2018-05-27T12:03:55.560Z,50.04
2018-05-27T12:06:21.853Z,49.91
2018-05-27T12:08:48.180Z,48.88
2018-05-27T12:11:14.471Z,49.10
2018-05-27T12:13:40.763Z,49.89
2018-05-27T12:16:07.057Z,50.26
2018-05-27T12:18:33.357Z,49.48
2018-05-27T12:20:59.648Z,49.80
2018-05-27T12:23:25.943Z,48.71
2018-05-27T12:25:52.259Z,48.33
2018-05-27T12:28:18.573Z,48.69
2018-05-27T12:30:44.904Z,48.78
2018-05-27T12:33:11.250Z,46.04
2018-05-27T12:35:37.553Z,47.42
2018-05-27T12:38:03.843Z,46.89
2018-05-27T12:40:30.137Z,47.41
2018-05-27T12:42:56.440Z,47.39
2018-05-27T12:45:22.737Z,48.15
2018-05-27T12:47:49.033Z,49.04
2018-05-27T12:50:15.328Z,50.11
2018-05-27T12:52:41.618Z,49.97
2018-05-27T12:55:07.915Z,49.29
2018-05-27T12:57:34.233Z,49.81
2018-05-27T13:00:00.561Z,49.93
2018-05-27T13:02:26.812Z,48.46
2018-05-27T13:04:53.115Z,48.83
2018-05-27T13:07:19.406Z,47.72
2018-05-27T13:09:45.728Z,46.71
2018-05-27T13:12:12.027Z,47.72
2018-05-27T13:14:38.316Z,48.08
2018-05-27T13:17:04.609Z,48.04
2018-05-27T13:19:30.905Z,49.19
2018-05-27T13:21:57.199Z,47.86
2018-05-27T13:24:23.499Z,48.77
2018-05-27T13:26:49.786Z,48.28
2018-05-27T13:29:16.139Z,49.44
2018-05-27T13:31:42.428Z,48.73
2018-05-27T13:34:08.724Z,47.24
2018-05-27T13:36:35.064Z,45.94
2018-05-27T13:39:01.352Z,46.08
2018-05-27T13:41:27.641Z,46.19
2018-05-27T13:43:53.935Z,46.76
2018-05-27T13:46:20.231Z,46.83
2018-05-27T13:48:46.524Z,46.43
2018-05-27T13:51:12.813Z,46.31
2018-05-27T13:53:39.108Z,46.71
2018-05-27T13:56:05.395Z,46.80
2018-05-27T13:58:31.683Z,47.79
2018-05-27T14:00:58.040Z,48.05
2018-05-27T14:03:24.413Z,47.66
2018-05-27T14:05:50.625Z,48.25
2018-05-27T14:08:16.916Z,47.16
2018-05-27T14:10:43.231Z,47.81
2018-05-27T14:13:09.516Z,48.20
2018-05-27T14:15:35.851Z,48.12
2018-05-27T14:18:02.140Z,47.97
2018-05-27T14:20:28.436Z,47.93
2018-05-27T14:22:54.724Z,47.88
2018-05-27T14:25:21.008Z,47.36
2018-05-27T14:27:47.296Z,47.31
2018-05-27T14:30:13.588Z,47.04
2018-05-27T14:32:39.907Z,47.26
2018-05-27T14:35:06.203Z,46.61
2018-05-27T14:37:32.496Z,46.51
2018-05-27T14:39:58.787Z,47.23
2018-05-27T14:42:25.081Z,47.25
2018-05-27T14:44:51.394Z,46.79
2018-05-27T14:47:17.671Z,47.39
2018-05-27T14:49:43.964Z,47.75
2018-05-27T14:52:10.261Z,47.70
2018-05-27T14:54:36.559Z,48.06
2018-05-27T14:57:02.853Z,48.02
2018-05-27T14:59:29.145Z,47.36
2018-05-27T15:01:55.442Z,47.65
2018-05-27T15:04:21.748Z,48.09
2018-05-27T15:06:48.042Z,49.95
2018-05-27T15:09:14.340Z,49.46
2018-05-27T15:11:40.635Z,48.26
2018-05-27T15:14:06.967Z,49.57
2018-05-27T15:16:33.256Z,48.81
2018-05-27T15:18:59.551Z,48.95
2018-05-27T15:21:25.883Z,47.85
2018-05-27T15:23:53.557Z,48.50
2018-05-27T15:26:20.041Z,49.17
2018-05-27T15:28:46.296Z,47.69
2018-05-27T15:31:12.588Z,48.89
2018-05-27T15:33:38.875Z,47.80
2018-05-27T15:36:05.177Z,47.58
2018-05-27T15:38:31.470Z,47.04
2018-05-27T15:40:57.792Z,47.40
2018-05-27T15:43:24.084Z,47.03
2018-05-27T15:45:50.377Z,47.19
2018-05-27T15:48:16.673Z,47.21
2018-05-27T15:50:42.961Z,46.97
2018-05-27T15:53:09.246Z,47.96
2018-05-27T15:55:35.540Z,48.05
2018-05-27T15:58:01.833Z,48.28
2018-05-27T16:00:28.129Z,48.04
2018-05-27T16:02:54.415Z,48.10
2018-05-27T16:05:20.760Z,48.70
2018-05-27T16:07:47.044Z,48.45
2018-05-27T16:10:13.345Z,49.19
2018-05-27T16:12:39.630Z,48.72
2018-05-27T16:15:05.941Z,48.88
2018-05-27T16:17:32.259Z,48.64
2018-05-27T16:19:58.560Z,47.58
2018-05-27T16:22:24.885Z,47.97
2018-05-27T16:24:51.219Z,48.35
2018-05-27T16:27:17.609Z,48.17
2018-05-27T16:29:43.859Z,48.11
2018-05-27T16:32:10.151Z,48.54
2018-05-27T16:34:36.472Z,48.40
2018-05-27T16:37:02.759Z,48.72
2018-05-27T16:39:29.051Z,49.03
2018-05-27T16:41:55.341Z,48.76
2018-05-27T16:44:21.639Z,49.20
2018-05-27T16:46:47.927Z,48.79
2018-05-27T16:49:14.225Z,48.37
2018-05-27T16:51:40.553Z,47.85
2018-05-27T16:54:06.841Z,47.94
2018-05-27T16:56:33.138Z,48.63
2018-05-27T16:58:59.438Z,48.95
2018-05-27T17:01:25.781Z,48.72
2018-05-27T17:03:52.036Z,49.58
2018-05-27T17:06:18.335Z,48.96
2018-05-27T17:08:44.627Z,48.60
2018-05-27T17:11:10.917Z,49.03
2018-05-27T17:13:37.217Z,49.31
2018-05-27T17:16:03.510Z,49.86
2018-05-27T17:18:29.797Z,49.63
2018-05-27T17:20:56.125Z,48.81
2018-05-27T17:23:22.397Z,49.05
2018-05-27T17:25:48.737Z,49.37
2018-05-27T17:28:15.080Z,50.29
2018-05-27T17:30:41.333Z,49.40
2018-05-27T17:33:07.667Z,49.50
2018-05-27T17:35:33.966Z,49.75
2018-05-27T17:38:00.258Z,49.23
2018-05-27T17:40:26.550Z,50.18
2018-05-27T17:42:52.850Z,49.14
2018-05-27T17:45:19.140Z,49.40
2018-05-27T17:47:45.479Z,49.27
2018-05-27T17:50:11.768Z,49.45
2018-05-27T17:52:38.061Z,49.25
2018-05-27T17:55:06.606Z,48.03
2018-05-27T17:57:32.991Z,49.26
2018-05-27T17:59:59.235Z,49.25
2018-05-27T18:02:25.534Z,48.77
2018-05-27T18:04:51.825Z,49.83
2018-05-27T18:07:18.119Z,50.23
2018-05-27T18:09:44.411Z,49.81
2018-05-27T18:12:10.705Z,49.55
2018-05-27T18:14:36.992Z,49.34
2018-05-27T18:17:03.331Z,49.33
2018-05-27T18:19:29.621Z,49.58
2018-05-27T18:21:55.911Z,49.82
2018-05-27T18:24:22.202Z,49.27
2018-05-27T18:26:48.502Z,47.68
2018-05-27T18:29:14.781Z,48.88
2018-05-27T18:31:41.083Z,49.39
2018-05-27T18:34:07.370Z,48.85
2018-05-27T18:36:33.660Z,49.65
2018-05-27T18:39:00.002Z,49.66
2018-05-27T18:41:26.296Z,50.36
2018-05-27T18:43:52.592Z,49.89
2018-05-27T18:46:18.928Z,50.38
2018-05-27T18:48:45.225Z,50.90
2018-05-27T18:51:11.560Z,50.93
2018-05-27T18:53:37.857Z,50.11
2018-05-27T18:56:04.201Z,50.44
2018-05-27T18:58:30.497Z,50.84
2018-05-27T19:00:56.833Z,50.97
2018-05-27T19:03:23.127Z,50.51
2018-05-27T19:05:49.483Z,50.90
2018-05-27T19:08:15.751Z,51.83
2018-05-27T19:10:42.038Z,51.71
2018-05-27T19:13:08.434Z,50.77
2018-05-27T19:15:34.718Z,50.84
2018-05-27T19:18:01.012Z,51.37
2018-05-27T19:20:27.301Z,51.69
2018-05-27T19:22:53.592Z,51.80
2018-05-27T19:25:19.881Z,51.61
2018-05-27T19:27:46.170Z,51.76
2018-05-27T19:30:12.499Z,52.06
2018-05-27T19:32:38.792Z,52.11
2018-05-27T19:35:05.075Z,52.13
2018-05-27T19:37:31.379Z,52.10
2018-05-27T19:39:57.677Z,51.88
2018-05-27T19:42:24.007Z,51.89
2018-05-27T19:44:50.266Z,51.97
2018-05-27T19:47:16.608Z,51.91
2018-05-27T19:49:42.896Z,52.10
2018-05-27T19:52:09.195Z,52.16
2018-05-27T19:54:35.506Z,52.31
2018-05-27T19:57:01.797Z,52.19
2018-05-27T19:59:28.090Z,52.33
2018-05-27T20:01:54.385Z,52.39
2018-05-27T20:04:20.703Z,52.52
2018-05-27T20:06:47.007Z,52.29
2018-05-27T20:09:13.300Z,52.36
2018-05-27T20:11:39.609Z,52.43
2018-05-27T20:14:05.906Z,52.48
2018-05-27T20:16:32.191Z,52.49
2018-05-27T20:18:58.492Z,52.62
2018-05-27T20:21:24.791Z,52.72
2018-05-27T20:23:51.079Z,52.72
2018-05-27T20:26:17.617Z,52.79
2018-05-27T20:28:44.105Z,52.89
2018-05-27T20:31:10.363Z,52.87
2018-05-27T20:33:36.663Z,52.86
2018-05-27T20:36:02.951Z,53.03
2018-05-27T20:38:29.239Z,53.14
2018-05-27T20:40:55.567Z,53.05
2018-05-27T20:43:21.869Z,53.10
2018-05-27T20:45:48.161Z,53.02
2018-05-27T20:48:14.463Z,53.02
2018-05-27T20:50:40.813Z,53.33
2018-05-27T20:53:07.116Z,53.36
2018-05-27T20:55:33.439Z,53.48
2018-05-27T20:57:59.735Z,53.70
2018-05-27T21:00:26.044Z,53.59
2018-05-27T21:02:52.343Z,53.43
2018-05-27T21:05:18.632Z,53.56
2018-05-27T21:07:44.925Z,53.67
2018-05-27T21:10:11.211Z,53.75
2018-05-27T21:12:37.511Z,53.80
2018-05-27T21:15:03.815Z,54.06
2018-05-27T21:17:30.111Z,54.23
2018-05-27T21:19:56.407Z,54.23
2018-05-27T21:22:22.883Z,54.36
2018-05-27T21:24:49.232Z,54.43
2018-05-27T21:27:15.536Z,54.48
2018-05-27T21:29:41.832Z,54.49
2018-05-27T21:32:08.147Z,54.68
2018-05-27T21:34:34.439Z,54.70
2018-05-27T21:37:00.774Z,54.97
2018-05-27T21:39:27.077Z,54.96
2018-05-27T21:41:53.370Z,54.87
2018-05-27T21:44:19.667Z,54.93
2018-05-27T21:46:45.961Z,55.08
2018-05-27T21:49:12.251Z,55.20
2018-05-27T21:51:38.547Z,55.07
2018-05-27T21:54:04.843Z,55.10
2018-05-27T21:56:31.133Z,55.31
2018-05-27T21:58:57.421Z,55.42
2018-05-27T22:01:23.717Z,55.52
2018-05-27T22:03:50.006Z,55.60
2018-05-27T22:06:16.331Z,55.44
2018-05-27T22:08:42.596Z,55.58
2018-05-27T22:11:08.892Z,55.51
2018-05-27T22:13:35.183Z,55.57
2018-05-27T22:16:01.478Z,55.54
2018-05-27T22:18:27.796Z,55.62
2018-05-27T22:20:54.084Z,55.60
2018-05-27T22:23:20.376Z,55.52
2018-05-27T22:25:46.663Z,55.79
2018-05-27T22:28:12.958Z,55.98
2018-05-27T22:30:39.254Z,56.12
2018-05-27T22:33:05.564Z,55.87
2018-05-27T22:35:31.856Z,55.95
2018-05-27T22:37:58.148Z,56.07
2018-05-27T22:40:24.444Z,56.04
2018-05-27T22:42:50.771Z,56.05
2018-05-27T22:45:17.068Z,55.91
2018-05-27T22:47:43.357Z,56.05
2018-05-27T22:50:09.647Z,56.14
2018-05-27T22:52:35.936Z,56.27
2018-05-27T22:55:02.268Z,56.17
2018-05-27T22:57:28.555Z,56.18
2018-05-27T22:59:54.851Z,56.20
2018-05-27T23:02:21.145Z,56.44
2018-05-27T23:04:47.437Z,56.51
2018-05-27T23:07:13.732Z,56.51
2018-05-27T23:09:40.056Z,56.54
2018-05-27T23:12:06.313Z,56.64
2018-05-27T23:14:32.607Z,56.76
2018-05-27T23:16:58.944Z,56.84
2018-05-27T23:19:26.307Z,56.87
2018-05-27T23:21:52.602Z,57.01
2018-05-27T23:24:18.910Z,57.04
2018-05-27T23:26:45.320Z,56.93
2018-05-27T23:29:11.617Z,56.97
2018-05-27T23:31:37.912Z,56.90
2018-05-27T23:34:04.239Z,57.00
2018-05-27T23:36:30.531Z,57.09
2018-05-27T23:38:56.828Z,57.32
2018-05-27T23:41:23.125Z,57.25
2018-05-27T23:43:49.420Z,57.19
2018-05-27T23:46:15.717Z,57.28
2018-05-27T23:48:42.011Z,57.22
2018-05-27T23:51:08.305Z,57.28
2018-05-27T23:53:34.595Z,57.33
2018-05-27T23:56:00.938Z,57.49
2018-05-27T23:58:27.227Z,57.35
